Time;durP1;ratioP1;P1;durP2;ratioP2;P2;SDS_P1;SDS_P2;PMS_P1;PMS_P2;Temp;Humidity;BMP_temperature;BMP_pressure;BME280_temperature;BME280_humidity;BME280_pressure;Samples;Min_cycle;Max_cycle;Signal;HPM_P1;HPM_P2
2022/02/17 00:01:51;;;;;;;1999.90;589.33;;;11.50;99.90;;;;;;5023029;28;20494;-78
2022/02/17 00:04:22;;;;;;;1999.90;497.70;;;11.40;99.90;;;;;;5020823;28;20448;-78
2022/02/17 00:06:56;;;;;;;1999.90;574.70;;;11.40;99.90;;;;;;5021534;28;20472;-78
2022/02/17 00:09:24;;;;;;;1999.90;999.90;;;11.40;99.90;;;;;;5022865;28;20471;-78
2022/02/17 00:11:52;;;;;;;1999.90;784.43;;;11.40;99.90;;;;;;5020184;28;20527;-78
2022/02/17 00:14:20;;;;;;;1999.90;999.90;;;11.30;99.90;;;;;;5021149;28;20452;-79
2022/02/17 00:16:52;;;;;;;1999.90;185.57;;;11.30;99.90;;;;;;5020132;28;20459;-78
2022/02/17 00:19:24;;;;;;;1999.90;999.90;;;11.30;99.90;;;;;;5021230;28;20442;-78
2022/02/17 00:21:55;;;;;;;1999.90;476.53;;;11.30;99.90;;;;;;5037361;28;20955;-78
2022/02/17 00:24:27;;;;;;;1999.90;175.83;;;11.30;99.90;;;;;;5020895;28;20448;-78
2022/02/17 00:26:57;;;;;;;1999.90;327.97;;;11.30;99.90;;;;;;5021233;28;20443;-78
2022/02/17 00:29:26;;;;;;;1999.90;333.37;;;11.20;99.90;;;;;;5021678;28;20463;-79
2022/02/17 00:31:59;;;;;;;1999.90;574.23;;;11.20;99.90;;;;;;5019995;28;20973;-79
2022/02/17 00:34:29;;;;;;;1999.90;612.80;;;11.20;99.90;;;;;;5020717;28;20444;-79
2022/02/17 00:36:58;;;;;;;1999.90;295.50;;;11.30;99.90;;;;;;5021596;28;20901;-78
2022/02/17 00:39:26;;;;;;;1999.90;827.77;;;11.20;99.90;;;;;;5021195;28;20471;-79
2022/02/17 00:41:56;;;;;;;1999.90;485.43;;;11.20;99.90;;;;;;5021598;28;20478;-79
2022/02/17 00:44:25;;;;;;;1999.90;468.97;;;11.20;99.90;;;;;;5018289;28;20448;-78
2022/02/17 00:46:55;;;;;;;1999.90;305.67;;;11.20;99.90;;;;;;5020230;28;20456;-78
2022/02/17 00:49:28;;;;;;;1999.90;999.90;;;11.20;99.90;;;;;;5014330;28;20815;-79
2022/02/17 00:51:59;;;;;;;1999.90;340.80;;;11.30;99.90;;;;;;5009940;28;20464;-78
2022/02/17 00:54:30;;;;;;;1999.90;416.97;;;11.20;99.90;;;;;;5017024;28;20489;-78
2022/02/17 00:57:01;;;;;;;1999.90;351.60;;;11.20;99.90;;;;;;5000133;28;20440;-78
2022/02/17 00:59:30;;;;;;;1999.90;404.93;;;11.20;99.90;;;;;;5000725;28;20445;-78
2022/02/17 01:02:00;;;;;;;1999.90;456.67;;;11.20;99.90;;;;;;5015313;28;20506;-78
2022/02/17 01:04:29;;;;;;;1999.90;447.20;;;11.20;99.90;;;;;;5020024;28;20461;-78
2022/02/17 01:06:59;;;;;;;1999.90;509.87;;;11.20;99.90;;;;;;5019216;28;20447;-78
2022/02/17 01:09:29;;;;;;;1999.90;494.13;;;11.20;99.90;;;;;;5037048;28;20476;-78
2022/02/17 01:11:57;;;;;;;1999.90;433.70;;;11.20;99.90;;;;;;5019933;28;20522;-79
2022/02/17 01:14:27;;;;;;;1999.90;534.77;;;11.20;99.90;;;;;;5020573;28;20454;-78
2022/02/17 01:16:59;;;;;;;1999.90;461.77;;;11.20;99.90;;;;;;5020913;28;20467;-78
2022/02/17 01:19:31;;;;;;;1999.90;614.87;;;11.20;99.90;;;;;;5020979;28;20527;-78
2022/02/17 01:22:01;;;;;;;1999.90;539.27;;;11.20;99.90;;;;;;5020824;28;20503;-78
2022/02/17 01:24:34;;;;;;;1999.90;826.73;;;11.20;99.90;;;;;;5020577;28;20509;-78
2022/02/17 01:27:06;;;;;;;1999.90;999.90;;;11.20;99.90;;;;;;5019164;28;20467;-78
2022/02/17 01:29:36;;;;;;;1834.40;134.70;;;11.20;99.90;;;;;;5024052;28;20467;-78
2022/02/17 01:32:05;;;;;;;1999.90;742.83;;;11.20;99.90;;;;;;5023374;28;20460;-79
2022/02/17 01:34:36;;;;;;;1857.73;417.00;;;11.20;99.90;;;;;;5024808;28;20444;-79
2022/02/17 01:37:15;;;;;;;1999.90;157.63;;;11.20;99.90;;;;;;5024746;28;20457;-78
2022/02/17 01:39:50;;;;;;;1999.90;480.70;;;11.20;99.90;;;;;;5025788;28;20432;-78
2022/02/17 01:42:21;;;;;;;1999.90;713.87;;;11.20;99.90;;;;;;5022946;28;20444;-78
2022/02/17 01:44:55;;;;;;;1999.90;999.90;;;11.20;99.90;;;;;;5023021;28;20969;-78
2022/02/17 01:47:23;;;;;;;1999.90;999.90;;;11.10;99.90;;;;;;5023964;28;20804;-79
2022/02/17 01:49:52;;;;;;;1999.90;999.90;;;11.10;99.90;;;;;;5023020;28;20475;-78
2022/02/17 01:52:23;;;;;;;1999.90;999.90;;;11.10;99.90;;;;;;5022713;28;20444;-78
2022/02/17 01:54:52;;;;;;;1999.90;999.90;;;11.10;99.90;;;;;;5022883;28;20535;-78
2022/02/17 01:57:29;;;;;;;1999.90;999.90;;;11.10;99.90;;;;;;5022080;28;20783;-78
2022/02/17 02:00:06;;;;;;;1999.90;999.90;;;11.10;99.90;;;;;;5023499;28;20483;-78
2022/02/17 02:02:46;;;;;;;1999.90;539.47;;;11.10;99.90;;;;;;5023953;28;20537;-79
2022/02/17 02:05:21;;;;;;;1999.90;999.90;;;11.00;99.90;;;;;;5022649;28;20466;-78
2022/02/17 02:07:51;;;;;;;1999.90;999.90;;;11.00;99.90;;;;;;5023749;28;20452;-78
2022/02/17 02:10:28;;;;;;;1999.90;999.90;;;11.00;99.90;;;;;;5023069;28;20491;-78
2022/02/17 02:12:58;;;;;;;1999.90;999.90;;;11.00;99.90;;;;;;5021973;28;20455;-78
2022/02/17 02:15:49;;;;;;;1999.90;999.90;;;11.00;99.90;;;;;;5022282;28;20484;-78
2022/02/17 02:18:20;;;;;;;1999.90;999.90;;;10.90;99.90;;;;;;5023259;28;20455;-78
2022/02/17 02:20:55;;;;;;;1999.90;733.67;;;10.90;99.90;;;;;;5023166;28;20900;-78
2022/02/17 02:23:34;;;;;;;1999.90;219.90;;;10.90;99.90;;;;;;5022795;28;20448;-78
2022/02/17 02:26:05;;;;;;;1999.90;314.50;;;10.90;99.90;;;;;;5023398;28;21015;-79
2022/02/17 02:28:39;;;;;;;1999.90;255.90;;;10.90;99.90;;;;;;5022291;28;20479;-78
2022/02/17 02:31:09;;;;;;;1999.90;999.90;;;10.80;99.90;;;;;;5021759;28;20471;-78
2022/02/17 02:33:41;;;;;;;1999.90;999.90;;;10.80;99.90;;;;;;5021829;28;20474;-78
2022/02/17 02:36:11;;;;;;;1999.90;576.83;;;10.70;99.90;;;;;;5021437;28;20467;-78
2022/02/17 02:38:57;;;;;;;1999.90;519.10;;;10.70;99.90;;;;;;5020761;28;20433;-78
2022/02/17 02:41:34;;;;;;;1999.90;626.17;;;10.70;99.90;;;;;;5020034;28;20547;-78
2022/02/17 02:44:03;;;;;;;1999.90;536.67;;;10.60;99.90;;;;;;5020456;28;20542;-78
2022/02/17 02:46:42;;;;;;;1999.90;567.77;;;10.60;99.90;;;;;;5012318;28;20494;-78
2022/02/17 02:49:10;;;;;;;1999.90;527.40;;;10.50;99.90;;;;;;5020184;28;20480;-78
2022/02/17 02:51:40;;;;;;;1999.90;675.57;;;10.40;99.90;;;;;;5018405;28;20503;-78
2022/02/17 02:54:11;;;;;;;1999.90;385.37;;;10.40;99.90;;;;;;5019784;28;20455;-78
2022/02/17 02:56:41;;;;;;;1999.90;567.73;;;10.40;99.90;;;;;;5020198;28;20460;-78
2022/02/17 02:59:09;;;;;;;1999.90;386.27;;;10.30;99.90;;;;;;5019696;28;20451;-78
2022/02/17 03:01:39;;;;;;;1999.90;702.63;;;10.30;99.90;;;;;;5021007;28;20495;-78
2022/02/17 03:04:16;;;;;;;1999.90;400.47;;;10.30;99.90;;;;;;5019533;28;20459;-78
2022/02/17 03:06:50;;;;;;;1999.90;569.90;;;10.20;99.90;;;;;;5018766;28;20463;-78
2022/02/17 03:09:23;;;;;;;1999.90;801.80;;;10.20;99.90;;;;;;5035937;28;20973;-78
2022/02/17 03:11:53;;;;;;;1999.90;648.67;;;10.20;99.90;;;;;;5019389;28;20464;-78
2022/02/17 03:14:22;;;;;;;1876.90;712.63;;;10.20;99.90;;;;;;5018814;28;20543;-78
2022/02/17 03:16:53;;;;;;;1999.90;999.90;;;10.10;99.90;;;;;;5019146;28;20464;-78
2022/02/17 03:19:21;;;;;;;1999.90;822.30;;;10.10;99.90;;;;;;5019639;28;20448;-77
2022/02/17 03:21:54;;;;;;;1999.90;999.90;;;10.10;99.90;;;;;;5035793;28;20467;-78
2022/02/17 03:24:24;;;;;;;1999.90;645.07;;;10.10;99.90;;;;;;5018981;28;20824;-78
2022/02/17 03:26:58;;;;;;;1999.90;794.03;;;10.10;99.90;;;;;;5017085;28;20511;-79
2022/02/17 03:29:26;;;;;;;1999.90;463.57;;;10.10;99.90;;;;;;5021808;28;20455;-79
2022/02/17 03:32:03;;;;;;;1999.90;999.90;;;10.10;99.90;;;;;;5021312;28;20480;-79
2022/02/17 03:34:32;;;;;;;1999.90;336.77;;;10.10;99.90;;;;;;5021507;28;20479;-78
2022/02/17 03:37:02;;;;;;;1999.90;405.70;;;10.10;99.90;;;;;;5021944;28;20452;-78
2022/02/17 03:39:30;;;;;;;1999.90;655.33;;;10.10;99.90;;;;;;5021543;28;20490;-79
2022/02/17 03:41:59;;;;;;;1999.90;999.90;;;10.00;99.90;;;;;;5023229;28;20463;-79
2022/02/17 03:44:31;;;;;;;1999.90;999.90;;;10.00;99.90;;;;;;5022493;28;20452;-79
2022/02/17 03:47:09;;;;;;;1999.90;999.90;;;10.00;99.90;;;;;;5034999;28;20460;-78
2022/02/17 03:49:51;;;;;;;1999.90;999.90;;;9.90;99.90;;;;;;5020574;28;20837;-79
2022/02/17 03:52:21;;;;;;;1999.90;579.03;;;9.90;99.90;;;;;;5020109;28;20887;-78
2022/02/17 03:55:10;;;;;;;1999.90;261.43;;;9.90;99.90;;;;;;5020068;28;20451;-79
2022/02/17 03:57:45;;;;;;;1999.90;356.87;;;9.90;99.90;;;;;;5021501;28;20505;-78
2022/02/17 04:00:17;;;;;;;1999.90;999.90;;;9.80;99.90;;;;;;5020921;28;20989;-78
2022/02/17 04:02:45;;;;;;;1999.90;999.90;;;9.80;99.90;;;;;;5022701;28;20963;-78
2022/02/17 04:05:20;;;;;;;1999.90;999.90;;;9.80;99.90;;;;;;5021066;28;20518;-79
2022/02/17 04:07:53;;;;;;;1999.90;999.90;;;9.80;99.90;;;;;;5001743;28;20460;-79
2022/02/17 04:10:25;;;;;;;1999.90;739.80;;;9.80;99.90;;;;;;5001537;28;20472;-78
2022/02/17 04:12:56;;;;;;;1999.90;999.90;;;9.80;99.90;;;;;;5001021;28;20460;-79
2022/02/17 04:15:31;;;;;;;1999.90;299.10;;;9.80;99.90;;;;;;5001435;28;20488;-79
2022/02/17 04:18:04;;;;;;;1999.90;715.93;;;9.70;99.90;;;;;;5002154;28;20441;-79
2022/02/17 04:20:39;;;;;;;1999.90;999.90;;;9.80;99.90;;;;;;5001187;28;20487;-78
2022/02/17 04:23:12;;;;;;;1999.90;700.10;;;9.70;99.90;;;;;;5019709;28;20448;-78
2022/02/17 04:25:44;;;;;;;1999.90;999.90;;;9.70;99.90;;;;;;5020472;28;20448;-78
2022/02/17 04:28:33;;;;;;;1999.90;335.53;;;9.70;99.90;;;;;;5020911;28;20856;-79
2022/02/17 04:31:02;;;;;;;1999.90;999.90;;;9.70;99.90;;;;;;5019267;28;20503;-78
2022/02/17 04:33:39;;;;;;;1999.90;999.90;;;9.60;99.90;;;;;;5020300;28;20478;-78
2022/02/17 04:36:34;;;;;;;1999.90;739.83;;;9.60;99.90;;;;;;5020638;28;20455;-79
2022/02/17 04:39:06;;;;;;;1999.90;403.57;;;9.60;99.90;;;;;;5019905;28;20444;-78
2022/02/17 04:44:40;;;;;;;1999.90;650.93;;;9.60;99.90;;;;;;4959739;29;20446;-78
2022/02/17 04:47:11;;;;;;;1999.90;510.27;;;9.60;99.90;;;;;;5002057;28;20479;-78
2022/02/17 04:49:39;;;;;;;1999.90;791.77;;;9.60;99.90;;;;;;5018810;28;20447;-78
2022/02/17 04:52:10;;;;;;;1999.90;525.50;;;9.60;99.90;;;;;;5018252;28;20976;-77
2022/02/17 04:54:41;;;;;;;1999.90;999.90;;;9.50;99.90;;;;;;5018444;28;20483;-78
2022/02/17 04:57:10;;;;;;;1999.90;452.87;;;9.60;99.90;;;;;;5018843;28;20487;-78
2022/02/17 04:59:49;;;;;;;1999.90;503.40;;;9.50;99.90;;;;;;5019351;28;20820;-78
2022/02/17 05:02:45;;;;;;;;;;;;;;;;;;;;;
2022/02/17 05:05:29;;;;;;;1999.90;279.50;;;9.50;99.90;;;;;;5022369;28;20455;-79
2022/02/17 05:08:00;;;;;;;1999.90;625.57;;;9.50;99.90;;;;;;5040598;28;20462;-79
2022/02/17 05:10:35;;;;;;;1999.90;241.27;;;9.50;99.90;;;;;;5022577;28;20880;-79
2022/02/17 05:13:04;;;;;;;1999.90;999.90;;;9.50;99.90;;;;;;5036999;28;20495;-78
2022/02/17 05:15:35;;;;;;;1999.90;496.83;;;9.50;99.90;;;;;;5021242;28;20444;-79
2022/02/17 05:18:09;;;;;;;1999.90;999.90;;;9.50;99.90;;;;;;5022195;28;20455;-78
2022/02/17 05:20:39;;;;;;;1999.90;999.90;;;9.50;99.90;;;;;;5022121;28;20471;-78
2022/02/17 05:23:26;;;;;;;1999.90;738.27;;;9.50;99.90;;;;;;5022689;28;20481;-79
2022/02/17 05:26:14;;;;;;;1999.90;604.23;;;9.50;99.90;;;;;;5023055;28;20463;-79
2022/02/17 05:28:49;;;;;;;1999.90;428.73;;;9.50;99.90;;;;;;5021238;28;20459;-78
2022/02/17 05:31:37;;;;;;;1999.90;286.63;;;9.50;99.90;;;;;;5021614;28;20865;-78
2022/02/17 05:34:35;;;;;;;1999.90;514.70;;;9.40;99.90;;;;;;5022698;28;20456;-79
2022/02/17 05:37:22;;;;;;;1999.90;670.03;;;9.40;99.90;;;;;;5022277;28;20446;-79
2022/02/17 05:40:15;;;;;;;1999.90;832.97;;;9.40;99.90;;;;;;5022286;28;20476;-79
2022/02/17 05:42:45;;;;;;;1999.90;468.80;;;9.40;99.90;;;;;;5022421;28;20439;-79
2022/02/17 05:45:13;;;;;;;1999.90;999.90;;;9.40;99.90;;;;;;5021862;28;20502;-79
2022/02/17 05:47:43;;;;;;;1999.90;308.17;;;9.40;99.90;;;;;;5038023;28;20860;-78
2022/02/17 05:50:12;;;;;;;1999.90;999.90;;;9.40;99.90;;;;;;5020592;28;20482;-78
2022/02/17 05:52:44;;;;;;;1999.90;999.90;;;9.40;99.90;;;;;;5020584;28;20470;-78
2022/02/17 05:55:12;;;;;;;1999.90;999.90;;;9.40;99.90;;;;;;5021801;28;20972;-78
2022/02/17 05:57:41;;;;;;;1999.90;999.90;;;9.40;99.90;;;;;;5020455;28;20456;-79
2022/02/17 06:00:15;;;;;;;1999.90;999.90;;;9.40;99.90;;;;;;5020874;28;21009;-78
2022/02/17 06:02:43;;;;;;;1999.90;581.53;;;9.40;99.90;;;;;;5022834;28;20434;-79
2022/02/17 06:05:16;;;;;;;1999.90;999.90;;;9.30;99.90;;;;;;5021001;28;20451;-79
2022/02/17 06:07:45;;;;;;;1999.90;999.90;;;9.30;99.90;;;;;;5022838;28;20474;-78
2022/02/17 06:10:13;;;;;;;1999.90;750.53;;;9.30;99.90;;;;;;5022531;28;20467;-79
2022/02/17 06:12:48;;;;;;;1999.90;419.83;;;9.30;99.90;;;;;;5025546;28;20471;-79
2022/02/17 06:15:18;;;;;;;1999.90;999.90;;;9.30;99.90;;;;;;5022945;28;20475;-79
2022/02/17 06:17:53;;;;;;;1999.90;452.93;;;9.30;99.90;;;;;;5024251;28;20526;-79
2022/02/17 06:20:21;;;;;;;1999.90;578.27;;;9.30;99.90;;;;;;5023393;28;20475;-79
2022/02/17 06:22:51;;;;;;;1999.90;598.23;;;9.30;99.90;;;;;;5023256;28;20447;-79
2022/02/17 06:25:20;;;;;;;1999.90;268.73;;;9.30;99.90;;;;;;5022613;28;20547;-79
2022/02/17 06:27:53;;;;;;;1999.90;268.03;;;9.20;99.90;;;;;;5022788;28;20436;-79
2022/02/17 06:30:25;;;;;;;1999.90;392.37;;;9.20;99.90;;;;;;5023085;28;20476;-79
2022/02/17 06:32:55;;;;;;;1999.90;999.90;;;9.20;99.90;;;;;;5023120;28;20485;-79
2022/02/17 06:35:33;;;;;;;1999.90;287.37;;;9.20;99.90;;;;;;5024488;28;20435;-79
2022/02/17 06:38:02;;;;;;;1999.90;999.90;;;9.20;99.90;;;;;;5023468;28;20781;-79
2022/02/17 06:40:33;;;;;;;1999.90;376.30;;;9.20;99.90;;;;;;5023604;28;20482;-79
2022/02/17 06:43:06;;;;;;;1999.90;601.10;;;9.20;99.90;;;;;;5024429;28;20446;-79
2022/02/17 06:45:42;;;;;;;1999.90;534.33;;;9.20;99.90;;;;;;5022803;28;20464;-79
2022/02/17 06:48:10;;;;;;;1999.90;722.13;;;9.20;99.90;;;;;;5023430;28;20459;-79
2022/02/17 06:50:39;;;;;;;1999.90;378.40;;;9.20;99.90;;;;;;5021830;28;20992;-79
2022/02/17 06:53:09;;;;;;;1999.90;999.90;;;9.20;99.90;;;;;;5022486;28;20474;-79
2022/02/17 06:55:39;;;;;;;1999.90;999.90;;;9.10;99.90;;;;;;5022774;28;20543;-79
2022/02/17 06:58:07;;;;;;;1999.90;999.90;;;9.10;99.90;;;;;;5024130;28;20468;-79
2022/02/17 07:00:37;;;;;;;1999.90;999.90;;;9.10;99.90;;;;;;5024189;28;20471;-79
2022/02/17 07:03:08;;;;;;;1999.90;542.03;;;9.10;99.90;;;;;;5022883;28;20856;-79
2022/02/17 07:05:47;;;;;;;1999.90;719.53;;;9.10;99.90;;;;;;5022068;28;20487;-78
2022/02/17 07:08:17;;;;;;;1999.90;999.90;;;9.10;99.90;;;;;;5021906;28;20537;-79
2022/02/17 07:10:57;;;;;;;1999.90;999.90;;;9.00;99.90;;;;;;5021102;28;20505;-79
2022/02/17 07:13:28;;;;;;;1999.90;999.90;;;9.00;99.90;;;;;;5021966;28;20494;-79
2022/02/17 07:16:02;;;;;;;1999.90;999.90;;;9.00;99.90;;;;;;5021705;28;20962;-79
2022/02/17 07:18:35;;;;;;;1999.90;999.90;;;9.00;99.90;;;;;;5022677;28;20428;-79
2022/02/17 07:21:06;;;;;;;1999.90;999.90;;;9.00;99.90;;;;;;5021266;28;20474;-79
2022/02/17 07:23:34;;;;;;;1999.90;999.90;;;8.90;99.90;;;;;;5023006;28;20482;-79
2022/02/17 07:26:11;;;;;;;1252.67;91.53;;;8.90;99.90;;;;;;5021838;28;20547;-79
2022/02/17 07:28:49;;;;;;;;;;;;;;;;;;;;;
2022/02/17 07:32:24;;;;;;;1999.90;845.57;;;8.90;99.90;;;;;;5022379;28;20570;-79
2022/02/17 07:35:04;;;;;;;;;;;;;;;;;;;;;
2022/02/17 07:37:33;;;;;;;1999.90;712.00;;;8.70;99.90;;;;;;4911331;29;20936;-80
2022/02/17 07:40:02;;;;;;;1999.90;703.20;;;8.60;99.90;;;;;;4948741;28;20577;-79
2022/02/17 07:42:33;;;;;;;1999.90;655.40;;;8.60;99.90;;;;;;5022435;28;20440;-79
2022/02/17 07:45:05;;;;;;;1999.90;890.80;;;8.60;99.90;;;;;;5021911;28;20452;-79
2022/02/17 07:47:46;;;;;;;1938.77;130.00;;;8.50;99.90;;;;;;5022091;28;20448;-79
2022/02/17 07:50:16;;;;;;;1999.90;432.87;;;8.50;99.90;;;;;;5020971;28;20485;-79
2022/02/17 07:52:45;;;;;;;1999.90;293.07;;;8.50;99.90;;;;;;5023225;28;20592;-79
2022/02/17 07:55:16;;;;;;;1999.90;323.30;;;8.50;99.90;;;;;;5021519;28;20437;-79
2022/02/17 07:57:44;;;;;;;1999.90;999.90;;;8.60;99.90;;;;;;5021202;28;20489;-79
2022/02/17 08:00:23;;;;;;;1999.90;999.90;;;8.60;99.90;;;;;;5020102;28;20497;-79
2022/02/17 08:02:52;;;;;;;1999.90;999.90;;;8.60;99.90;;;;;;5020429;28;20859;-79
2022/02/17 08:05:23;;;;;;;1999.90;999.90;;;8.60;99.90;;;;;;5021594;28;20490;-79
2022/02/17 08:07:57;;;;;;;1999.90;999.90;;;8.60;99.90;;;;;;5021776;28;20440;-79
2022/02/17 08:10:25;;;;;;;1999.90;999.90;;;8.60;99.90;;;;;;5021150;28;20451;-78
2022/02/17 08:12:55;;;;;;;1999.90;999.90;;;8.60;99.90;;;;;;5020370;28;20461;-79
2022/02/17 08:15:23;;;;;;;1586.23;678.70;;;8.60;99.90;;;;;;5020027;28;20482;-79
2022/02/17 08:17:53;;;;;;;1999.90;999.90;;;8.60;99.90;;;;;;5019562;28;20549;-78
2022/02/17 08:20:26;;;;;;;1999.90;999.90;;;8.60;99.90;;;;;;5022510;28;20459;-79
2022/02/17 08:22:57;;;;;;;1999.90;999.90;;;8.60;99.90;;;;;;5021636;28;20855;-79
2022/02/17 08:25:27;;;;;;;1999.90;999.90;;;8.70;99.90;;;;;;5021375;28;20448;-79
2022/02/17 08:27:56;;;;;;;1999.90;999.90;;;8.70;99.90;;;;;;5021448;28;21046;-79
2022/02/17 08:30:26;;;;;;;1928.13;208.37;;;8.70;99.90;;;;;;5019954;28;20494;-78
2022/02/17 08:32:58;;;;;;;1999.90;447.40;;;8.70;99.90;;;;;;5021826;28;20452;-79
2022/02/17 08:35:28;;;;;;;1999.90;656.33;;;8.60;99.90;;;;;;5020022;28;20443;-79
2022/02/17 08:37:57;;;;;;;1999.90;724.43;;;8.60;99.90;;;;;;5021288;28;20453;-79
2022/02/17 08:40:26;;;;;;;1999.90;730.93;;;8.60;99.90;;;;;;5025185;28;20473;-79
2022/02/17 08:43:08;;;;;;;1999.90;505.10;;;8.50;99.90;;;;;;5024301;28;20460;-79
2022/02/17 08:45:39;;;;;;;1999.90;490.03;;;8.50;99.90;;;;;;5023043;28;20438;-79
2022/02/17 08:48:10;;;;;;;1999.90;386.20;;;8.40;99.90;;;;;;5023321;28;20487;-79
2022/02/17 08:50:40;;;;;;;1999.90;301.60;;;8.40;99.90;;;;;;5025769;28;20568;-78
2022/02/17 08:53:10;;;;;;;1999.90;384.73;;;8.40;99.90;;;;;;5028899;28;20433;-79
2022/02/17 08:55:52;;;;;;;1999.90;473.63;;;8.40;99.90;;;;;;5028914;28;20481;-80
2022/02/17 08:58:21;;;;;;;1725.30;144.57;;;8.40;99.90;;;;;;5029771;28;20485;-79
2022/02/17 09:00:49;;;;;;;1999.90;999.90;;;8.40;99.90;;;;;;5027778;28;20469;-79
2022/02/17 09:03:19;;;;;;;1999.90;999.90;;;8.40;99.90;;;;;;5027805;28;20461;-79
2022/02/17 09:05:49;;;;;;;1999.90;999.90;;;8.50;99.90;;;;;;5027527;28;20464;-79
2022/02/17 09:08:37;;;;;;;1999.90;493.23;;;8.50;99.90;;;;;;5027064;28;20458;-79
2022/02/17 09:11:06;;;;;;;1999.90;729.40;;;8.40;99.90;;;;;;5025783;28;20491;-79
2022/02/17 09:13:35;;;;;;;1999.90;413.83;;;8.50;99.90;;;;;;5025314;28;20511;-79
2022/02/17 09:16:04;;;;;;;1999.90;705.73;;;8.50;99.90;;;;;;5023024;28;20475;-79
2022/02/17 09:18:34;;;;;;;1821.93;432.13;;;8.40;99.90;;;;;;5023673;28;20462;-79
2022/02/17 09:21:02;;;;;;;1705.80;306.27;;;8.40;99.90;;;;;;5024399;28;20535;-79
2022/02/17 09:23:30;;;;;;;1999.90;484.67;;;8.30;99.90;;;;;;5026950;28;20860;-79
2022/02/17 09:26:00;;;;;;;1037.67;158.10;;;8.20;99.90;;;;;;5026082;28;20955;-79
2022/02/17 09:28:31;;;;;;;183.93;47.33;;;8.10;99.90;;;;;;5025994;28;20468;-79
2022/02/17 09:31:00;;;;;;;172.83;31.50;;;8.00;99.90;;;;;;5025772;28;20543;-80
2022/02/17 09:33:28;;;;;;;141.17;21.37;;;7.90;99.90;;;;;;5026664;28;20467;-80
2022/02/17 09:35:58;;;;;;;477.43;104.97;;;7.80;99.90;;;;;;5028124;28;20452;-80
2022/02/17 09:38:32;;;;;;;431.13;60.33;;;7.80;99.90;;;;;;5027793;28;20455;-80
2022/02/17 09:41:06;;;;;;;685.57;72.30;;;7.80;99.90;;;;;;5026217;28;20513;-79
2022/02/17 09:43:39;;;;;;;470.17;84.40;;;7.80;99.90;;;;;;5023675;28;20514;-78
2022/02/17 09:46:07;;;;;;;386.67;52.10;;;7.80;99.90;;;;;;5025795;28;20450;-79
2022/02/17 09:48:42;;;;;;;665.90;111.57;;;7.80;99.90;;;;;;5024868;28;20492;-79
2022/02/17 09:51:11;;;;;;;127.03;20.10;;;7.80;99.90;;;;;;5024954;28;20503;-80
2022/02/17 09:53:41;;;;;;;84.70;17.43;;;7.80;99.90;;;;;;5024502;28;20517;-79
2022/02/17 09:56:09;;;;;;;587.87;93.90;;;7.80;99.90;;;;;;5024617;28;20511;-79
2022/02/17 09:58:41;;;;;;;214.20;39.63;;;7.90;99.90;;;;;;5024767;28;20451;-79
2022/02/17 10:01:17;;;;;;;1999.90;309.60;;;7.90;99.90;;;;;;5025639;28;20495;-79
2022/02/17 10:03:45;;;;;;;1859.87;296.63;;;8.00;99.90;;;;;;5025715;28;20447;-79
2022/02/17 10:06:40;;;;;;;1894.23;275.10;;;8.10;99.90;;;;;;5025821;28;21025;-79
2022/02/17 10:09:08;;;;;;;940.00;191.73;;;8.10;99.90;;;;;;5025075;28;20500;-79
2022/02/17 10:11:39;;;;;;;1301.23;245.13;;;8.20;99.90;;;;;;5026471;28;20467;-79
2022/02/17 10:14:18;;;;;;;1999.90;419.30;;;8.30;99.90;;;;;;5024837;28;20473;-79
2022/02/17 10:16:59;;;;;;;1999.90;345.67;;;8.40;99.90;;;;;;5024293;28;20434;-79
2022/02/17 10:19:28;;;;;;;1999.90;658.50;;;8.50;99.90;;;;;;5025483;28;20632;-80
2022/02/17 10:22:07;;;;;;;1999.90;655.40;;;8.50;99.90;;;;;;5025989;28;20868;-79
2022/02/17 10:24:42;;;;;;;1999.90;638.40;;;8.50;99.90;;;;;;5025244;28;20445;-79
2022/02/17 10:27:14;;;;;;;1999.90;731.20;;;8.60;99.90;;;;;;5026671;28;20841;-79
2022/02/17 10:29:59;;;;;;;1999.90;608.97;;;8.70;99.90;;;;;;5026016;28;20461;-79
2022/02/17 10:32:27;;;;;;;1999.90;407.53;;;8.80;99.90;;;;;;5026071;28;20513;-79
2022/02/17 10:35:11;;;;;;;1999.90;447.77;;;8.80;99.90;;;;;;5024680;28;20878;-79
2022/02/17 10:37:51;;;;;;;1999.90;453.73;;;8.80;99.90;;;;;;5026809;28;20431;-79
2022/02/17 10:40:24;;;;;;;1999.90;658.77;;;8.80;99.90;;;;;;5024133;28;20514;-79
2022/02/17 10:43:00;;;;;;;1999.90;703.80;;;8.80;99.90;;;;;;5023830;28;20493;-79
2022/02/17 10:45:37;;;;;;;1999.90;839.93;;;8.70;99.90;;;;;;5024153;28;20447;-79
2022/02/17 10:48:14;;;;;;;1999.90;529.77;;;8.60;99.90;;;;;;5024300;28;20451;-79
2022/02/17 10:50:47;;;;;;;1999.90;626.63;;;8.50;99.90;;;;;;5024782;28;20471;-79
2022/02/17 10:53:20;;;;;;;1999.90;533.40;;;8.50;99.90;;;;;;5024832;28;20430;-79
2022/02/17 10:55:55;;;;;;;1999.90;477.60;;;8.40;99.90;;;;;;5025118;28;20458;-79
2022/02/17 10:58:27;;;;;;;1999.90;563.13;;;8.50;99.90;;;;;;5023160;28;20449;-80
2022/02/17 11:01:05;;;;;;;1999.90;594.10;;;8.50;99.90;;;;;;5021889;28;20463;-79
2022/02/17 11:03:44;;;;;;;1999.90;494.20;;;8.50;99.90;;;;;;5024237;28;20519;-79
2022/02/17 11:06:15;;;;;;;1999.90;546.70;;;8.50;99.90;;;;;;5024030;28;20462;-79
2022/02/17 11:11:44;;;;;;;1094.90;202.57;;;8.50;99.90;;;;;;5025034;28;20846;-79
2022/02/17 11:14:13;;;;;;;227.90;46.87;;;8.40;99.90;;;;;;5025067;28;20438;-79
2022/02/17 11:16:42;;;;;;;701.17;66.53;;;8.30;99.90;;;;;;5024011;28;20468;-80
2022/02/17 11:27:09;;;;;;;717.53;92.77;;;8.10;99.90;;;;;;4891090;28;20459;-81
2022/02/17 11:29:41;;;;;;;282.40;43.43;;;8.00;99.90;;;;;;4966335;28;20445;-80
2022/02/17 11:32:14;;;;;;;257.00;48.77;;;8.00;99.90;;;;;;4982598;28;20817;-80
2022/02/17 11:34:44;;;;;;;120.33;45.33;;;8.00;99.90;;;;;;4965656;28;20491;-80
2022/02/17 11:37:34;;;;;;;915.80;173.17;;;8.00;99.90;;;;;;4966492;28;20937;-79
2022/02/17 11:40:07;;;;;;;206.53;44.00;;;7.90;99.90;;;;;;4983207;28;20465;-79
2022/02/17 11:42:38;;;;;;;583.80;90.03;;;7.80;99.90;;;;;;4981450;28;20454;-79
2022/02/17 11:45:10;;;;;;;171.47;35.57;;;7.80;99.90;;;;;;4982742;28;21040;-79
2022/02/17 11:48:00;;;;;;;404.57;48.50;;;7.70;99.90;;;;;;4983552;28;20456;-79
2022/02/17 11:50:31;;;;;;;441.33;43.00;;;7.60;99.90;;;;;;4967233;28;20486;-80
2022/02/17 11:53:26;;;;;;;237.87;31.83;;;7.50;99.90;;;;;;4979448;28;20442;-80
2022/02/17 11:55:55;;;;;;;216.43;25.90;;;7.40;99.90;;;;;;5023732;28;20505;-80
2022/02/17 11:58:44;;;;;;;337.77;36.13;;;7.40;99.90;;;;;;5023934;28;20535;-80
2022/02/17 12:01:37;;;;;;;341.37;46.70;;;7.50;99.90;;;;;;5023323;28;20522;-80
2022/02/17 12:04:10;;;;;;;291.47;40.67;;;7.60;99.90;;;;;;5014073;28;20485;-80
2022/02/17 12:07:00;;;;;;;294.67;30.27;;;7.70;99.90;;;;;;5023690;28;20460;-79
2022/02/17 12:09:41;;;;;;;382.63;49.80;;;7.70;99.90;;;;;;5022808;28;20461;-79
2022/02/17 12:12:48;;;;;;;210.40;49.60;;;7.80;99.90;;;;;;5019976;28;20477;-79
2022/02/17 12:15:22;;;;;;;348.80;72.83;;;7.80;99.90;;;;;;5022606;28;20519;-79
2022/02/17 12:22:06;;;;;;;590.13;104.47;;;7.90;99.90;;;;;;4881036;29;20473;-79
2022/02/17 12:24:35;;;;;;;1952.10;303.67;;;8.00;99.90;;;;;;5014273;28;20880;-79
2022/02/17 12:27:05;;;;;;;1599.17;324.57;;;8.10;99.90;;;;;;5022547;28;20459;-79
2022/02/17 12:29:36;;;;;;;1302.87;258.43;;;8.10;99.90;;;;;;5022177;28;20506;-79
2022/02/17 12:32:07;;;;;;;1999.90;534.33;;;8.10;99.90;;;;;;5021235;28;20513;-79
2022/02/17 12:34:36;;;;;;;1999.90;629.00;;;8.20;99.90;;;;;;5022591;28;20468;-79
2022/02/17 12:37:05;;;;;;;1999.90;697.93;;;8.30;99.90;;;;;;5021567;28;20484;-79
2022/02/17 12:39:34;;;;;;;1999.90;800.03;;;8.30;99.90;;;;;;5023689;28;20857;-79
2022/02/17 12:42:05;;;;;;;1999.90;536.87;;;8.40;99.90;;;;;;5022493;28;20562;-79
2022/02/17 12:44:37;;;;;;;1999.90;314.97;;;8.40;99.90;;;;;;5023457;28;20466;-79
2022/02/17 12:47:08;;;;;;;1999.90;715.93;;;8.40;99.90;;;;;;5023249;28;20447;-79
2022/02/17 12:49:37;;;;;;;1999.90;999.90;;;8.40;99.90;;;;;;5021975;28;20440;-79
2022/02/17 12:52:08;;;;;;;1999.90;805.07;;;8.50;99.90;;;;;;5021164;28;20550;-79
2022/02/17 12:54:37;;;;;;;1999.90;360.37;;;8.50;99.90;;;;;;5020979;28;20547;-79
2022/02/17 12:57:15;;;;;;;1999.90;569.67;;;8.60;99.90;;;;;;5021703;28;20468;-79
2022/02/17 12:59:44;;;;;;;1999.90;999.90;;;8.60;99.90;;;;;;5021505;28;20440;-79